Latest Coastal Weather Observations for Smithton

IDT60701

Issued at 6:05 am EDT Friday 31 October 2014 (issued every 10 minutes, with the page automatically refreshed every 10 minutes)

About coastal observations | Map of coastal stations | Coastal observations for TAS | Marine services | Other Formats
Station Details ID: 091292 Name: SMITHTON AERODROME Lat: -40.83 Lon: 145.08 Height: 7.5 m
Data from the previous 72 hours. | See also: Recent months at Smithton
Date/Time
EDT
Temp

°C
Wind Pressure Rain
since 9am
mm
Weather Cloud Vis
km
Sea
Height
m
Swell
Dir
 
Speed
knots
Gust
knots
hPa Trend Height
m
Period
s
Dir
31/06:00am 10.8 NW 4 5 1008.4 - 0.6 - - - - - - -
31/05:30am 10.8 NW 5 6 1008.4 - 0.6 - - - - - - -
31/05:00am 10.8 NW 6 6 1008.7 - 0.6 - - - - - - -
31/04:30am 10.8 W 5 6 1009.0 - 0.6 - - - - - - -
31/04:00am 10.6 W 1 5 1009.1 - 0.6 - - - - - - -
31/03:30am 10.6 CALM 0 0 1009.7 - 0.6 - - - - - - -
31/03:00am 10.7 W 1 3 1009.7 - 0.6 - - - - - - -
31/02:30am 10.2 W 4 5 1009.9 - 0.6 - - - - - - -
31/02:00am 10.6 W 6 7 1010.4 - 0.6 - - - - - - -
31/01:30am 11.3 W 9 14 1011.1 - 0.6 - - - - - - -
31/01:00am 10.5 W 4 5 1011.2 - 0.4 - - - - - - -
31/12:30am 10.5 W 4 5 1011.6 - 0.2 - - - - - - -
31/12:00am 11.3 W 6 8 1011.7 - 0.2 - - - - - - -
 
Date/Time
EDT
Temp

°C
Wind Pressure Rain
since 9am
mm
Weather Cloud Vis
km
Sea
Height
m
Swell
Dir
 
Speed
knots
Gust
knots
hPa Trend Height
m
Period
s
Dir
30/11:30pm 11.3 WNW 4 6 1011.8 - 0.2 - - - - - - -
30/11:00pm 11.0 WNW 6 6 1012.0 - 0.2 - - - - - - -
30/10:30pm 10.2 WNW 5 6 1012.0 - 0.2 - - - - - - -
30/10:00pm 10.9 WNW 2 3 1012.2 - 0.2 - - - - - - -
30/09:30pm 10.9 WNW 3 4 1012.3 - 0.2 - - - - - - -
30/09:00pm 10.7 WNW 4 5 1012.1 - 0.2 - - - - - - -
30/08:30pm 10.5 W 5 7 1011.9 - 0.2 - - - - - - -
30/08:00pm 11.9 W 7 8 1011.5 - 0.2 - - - - - - -
30/07:30pm 12.4 WSW 8 11 1011.2 - 0.2 - - - - - - -
30/07:00pm 12.7 W 11 15 1011.5 - 0.2 - - - - - - -
30/06:30pm 13.5 W 11 15 1011.2 - 0.2 - - - - - - -
30/06:00pm 14.0 W 14 19 1011.2 - 0.2 - - - - - - -
30/05:30pm 14.7 W 15 19 1011.1 - 0.2 - - - - - - -
30/05:00pm 15.1 W 14 20 1011.3 - 0.2 - - - - - - -
30/04:30pm 15.3 W 14 19 1011.1 - 0.2 - - - - - - -
30/04:00pm 15.4 W 15 20 1011.2 - 0.2 - - - - - - -
30/03:54pm 15.3 W 18 28 1011.2 - 0.2 - - - - - - -
30/03:30pm 15.7 W 15 21 1011.2 - 0.2 - - - - - - -
30/03:00pm 14.8 WSW 16 26 1011.3 - 0.2 - - - - - - -
30/02:30pm 16.7 W 16 23 1011.1 - 0.2 - - - - - - -
30/02:00pm 16.7 W 16 22 1011.3 - 0.2 - - - - - - -
30/01:30pm 15.9 W 16 23 1011.3 - 0.2 - - - - - - -
30/01:00pm 16.0 W 17 22 1011.2 - 0.2 - - - - - - -
30/12:30pm 15.9 W 16 22 1011.4 - 0.2 - - - - - - -
30/12:00pm 15.6 W 17 25 1011.7 - 0.2 - - - - - - -
30/11:30am 15.3 W 16 23 1011.6 - 0.2 - - - - - - -
30/11:00am 15.4 W 15 21 1011.8 - 0.2 - - - - - - -
30/10:30am 14.1 W 17 22 1012.0 - 0.2 - - - - - - -
30/10:00am 13.9 W 12 16 1012.0 - 0.2 - - - - - - -
30/09:30am 12.8 W 14 20 1012.1 - 0.2 - - - - - - -
30/09:00am 12.6 W 12 16 1012.0 - 3.0 - - - - - - -
30/08:30am 13.1 W 11 15 1011.9 - 2.8 - - - - - - -
30/08:00am 12.7 WSW 10 15 1011.8 - 2.8 - - - - - - -
30/07:30am 11.5 WSW 9 14 1011.5 - 2.8 - - - - - - -
30/07:00am 11.1 WSW 6 8 1011.5 - 2.8 - - - - - - -
30/06:30am 10.8 WNW 4 6 1011.2 - 2.2 - - - - - - -
30/06:00am 10.8 WNW 6 8 1011.1 - 2.2 - - - - - - -
30/05:30am 10.5 WNW 7 8 1011.1 - 2.2 - - - - - - -
30/05:00am 10.6 W 5 6 1010.9 - 2.2 - - - - - - -
30/04:30am 10.6 WNW 6 8 1010.9 - 2.0 - - - - - - -
30/04:00am 9.9 W 4 6 1011.1 - 2.0 - - - - - - -
30/03:30am 10.1 W 4 5 1011.4 - 2.0 - - - - - - -
30/03:00am 10.5 W 7 8 1011.6 - 2.0 - - - - - - -
30/02:30am 10.8 WSW 6 9 1011.6 - 2.0 - - - - - - -
30/02:00am 11.2 W 9 12 1011.7 - 2.0 - - - - - - -
30/01:30am 11.1 W 8 10 1011.7 - 2.0 - - - - - - -
30/01:00am 11.3 W 9 12 1012.0 - 2.0 - - - - - - -
30/12:30am 11.3 W 9 11 1012.3 - 2.0 - - - - - - -
30/12:00am 11.5 W 9 14 1012.3 - 2.0 - - - - - - -
 
Date/Time
EDT
Temp

°C
Wind Pressure Rain
since 9am
mm
Weather Cloud Vis
km
Sea
Height
m
Swell
Dir
 
Speed
knots
Gust
knots
hPa Trend Height
m
Period
s
Dir
29/11:30pm 11.5 W 6 8 1012.6 - 2.0 - - - - - - -
29/11:00pm 11.3 WSW 7 9 1012.8 - 2.0 - - - - - - -
29/10:30pm 11.4 WSW 9 14 1012.7 - 2.0 - - - - - - -
29/10:00pm 12.0 WSW 11 18 1012.8 - 1.8 - - - - - - -
29/09:30pm 12.1 W 8 11 1012.7 - 1.4 - - - - - - -
29/09:00pm 12.1 W 9 12 1012.6 - 1.0 - - - - - - -
29/08:30pm 11.8 W 11 15 1012.6 - 1.0 - - - - - - -
29/08:00pm 12.3 WSW 10 15 1012.6 - 0.6 - - - - - - -
29/07:47pm 12.7 W 15 25 1012.5 - 0.2 - - - - - - -
29/07:30pm 13.3 W 14 19 1012.5 - 0.2 - - - - - - -
29/07:00pm 13.5 W 16 23 1012.4 - 0.2 - - - - - - -
29/06:30pm 13.6 W 15 22 1012.4 - 0.2 - - - - - - -
29/06:00pm 13.7 W 17 26 1012.6 - 0.2 - - - - - - -
29/05:52pm 13.7 W 16 26 1012.6 - 0.2 - - - - - - -
29/05:30pm 13.8 W 15 21 1012.8 - 0.2 - - - - - - -
29/05:00pm 13.6 W 19 25 1012.8 - 0.0 - - - - - - -
29/04:30pm 15.0 W 18 25 1012.8 - 0.0 - - - - - - -
29/04:00pm 16.1 WNW 17 23 1013.0 - 0.0 - - - - - - -
29/03:38pm 15.4 W 15 25 1013.3 - 0.0 - - - - - - -
29/03:30pm 14.9 W 16 21 1013.4 - 0.0 - - - - - - -
29/03:00pm 15.0 W 20 28 1013.4 - 0.0 - - - - - - -
29/02:30pm 14.6 WNW 16 26 1013.7 - 0.0 - - - - - - -
29/02:27pm 14.2 WNW 16 26 1013.7 - 0.0 - - - - - - -
29/02:00pm 15.4 W 18 24 1013.8 - 0.0 - - - - - - -
29/01:30pm 15.1 W 17 21 1013.8 - 0.0 - - - - - - -
29/01:00pm 15.3 W 15 21 1013.7 - 0.0 - - - - - - -
29/12:30pm 14.8 W 14 19 1014.2 - 0.0 - - - - - - -
29/12:12pm 13.8 W 15 25 1014.3 - 0.0 - - - - - - -
29/12:00pm 13.2 WSW 13 17 1014.3 - 0.0 - - - - - - -
29/11:30am 15.0 WNW 16 22 1014.3 - 0.0 - - - - - - -
29/11:13am 14.2 W 15 26 1014.3 - 0.0 - - - - - - -
29/11:00am 14.5 W 14 22 1014.4 - 0.0 - - - - - - -
29/10:30am 13.3 WNW 14 17 1014.6 - 0.0 - - - - - - -
29/10:00am 12.8 W 12 17 1014.7 - 0.0 - - - - - - -
29/09:30am 12.6 W 8 11 1014.8 - 0.0 - - - - - - -
29/09:00am 11.5 WNW 13 19 1014.8 - 3.2 - - - - - - -
29/08:30am 11.7 W 7 10 1014.6 - 3.2 - - - - - - -
29/08:00am 11.1 W 8 11 1014.6 - 3.2 - - - - - - -
29/07:30am 10.0 WNW 4 5 1014.5 - 3.2 - - - - - - -
29/07:00am 9.3 WNW 5 6 1014.4 - 3.2 - - - - - - -
29/06:30am 8.7 W 5 7 1014.1 - 3.2 - - - - - - -
29/06:00am 8.5 W 7 9 1013.9 - 3.2 - - - - - - -
29/05:30am 9.2 W 8 10 1013.6 - 3.2 - - - - - - -
29/05:00am 8.0 W 5 6 1013.4 - 3.2 - - - - - - -
29/04:30am 8.5 WSW 6 8 1013.0 - 3.2 - - - - - - -
29/04:00am 8.0 WSW 8 9 1013.0 - 3.2 - - - - - - -
29/03:30am 7.1 W 9 10 1012.9 - 3.2 - - - - - - -
29/03:00am 7.1 W 9 10 1012.8 - 3.2 - - - - - - -
29/02:30am 7.0 W 8 9 1012.7 - 3.2 - - - - - - -
29/02:00am 7.5 W 10 11 1012.7 - 3.2 - - - - - - -
29/01:30am 7.6 WSW 11 14 1012.8 - 3.2 - - - - - - -
29/01:00am 7.9 WSW 12 17 1012.8 - 3.2 - - - - - - -
29/12:30am 8.1 WSW 12 17 1012.5 - 3.2 - - - - - - -
29/12:00am 8.1 WSW 12 16 1012.6 - 3.2 - - - - - - -
 
Date/Time
EDT
Temp

°C
Wind Pressure Rain
since 9am
mm
Weather Cloud Vis
km
Sea
Height
m
Swell
Dir
 
Speed
knots
Gust
knots
hPa Trend Height
m
Period
s
Dir
28/11:30pm 8.5 WSW 10 16 1012.6 - 3.2 - - - - - - -
28/11:00pm 7.7 WSW 7 9 1012.5 - 3.2 - - - - - - -
28/10:30pm 8.0 WSW 11 15 1012.4 - 3.2 - - - - - - -
28/10:00pm 8.3 WSW 13 16 1012.2 - 3.2 - - - - - - -
28/09:30pm 7.9 WSW 14 17 1012.2 - 3.2 - - - - - - -
28/09:00pm 8.9 SW 16 26 1011.9 - 3.0 - - - - - - -
28/08:59pm 9.0 SW 15 26 1011.9 - 3.0 - - - - - - -
28/08:30pm 7.8 WSW 11 14 1011.5 - 3.0 - - - - - - -
28/08:00pm 8.0 WSW 15 23 1011.3 - 3.0 - - - - - - -
28/07:49pm 8.5 SW 15 30 1011.3 - 3.0 - - - - - - -
28/07:30pm 8.7 WSW 13 18 1010.7 - 3.0 - - - - - - -
28/07:14pm 9.1 WSW 18 28 1010.3 - 3.0 - - - - - - -
28/07:00pm 9.2 WSW 16 25 1010.1 - 3.0 - - - - - - -
28/06:30pm 9.1 W 23 34 1009.4 - 3.0 - - - - - - -
28/06:01pm 9.5 WSW 20 31 1009.0 - 2.2 - - - - - - -
28/06:00pm 10.8 WSW 20 26 1008.9 - 2.2 - - - - - - -
28/05:30pm 11.0 WSW 21 27 1008.2 - 2.2 - - - - - - -
28/05:18pm 10.8 WSW 20 31 1007.9 - 2.2 - - - - - - -
28/05:00pm 10.5 WSW 30 42 1007.6 - 2.2 - - - - - - -
28/04:33pm 11.1 WSW 23 33 1007.2 - 2.2 - - - - - - -
28/04:30pm 11.1 WSW 24 33 1007.2 - 2.2 - - - - - - -
28/04:01pm 10.5 W 25 37 1006.9 - 1.8 - - - - - - -
28/04:00pm 10.9 W 25 34 1006.8 - 1.8 - - - - - - -
28/03:30pm 11.1 WSW 24 36 1006.3 - 1.4 - - - - - - -
28/03:00pm 12.4 WSW 25 37 1005.9 - 1.4 - - - - - - -
28/02:36pm 12.8 WSW 27 37 1005.8 - 1.2 - - - - - - -
28/02:30pm 12.7 WSW 28 37 1005.7 - 1.2 - - - - - - -
28/02:25pm 12.0 WSW 30 36 1005.7 - 1.2 - - - - - - -
28/02:11pm 11.4 WSW 20 32 1005.6 - 1.2 - - - - - - -
28/02:00pm 11.4 WSW 22 31 1005.5 - 1.2 - - - - - - -
28/01:30pm 11.9 W 24 37 1004.9 - 0.6 - - - - - - -
28/01:00pm 12.7 WSW 29 46 1004.6 - 0.6 - - - - - - -
28/12:30pm 10.4 WSW 32 47 1004.4 - 0.6 - - - - - - -
28/12:00pm 11.2 WSW 29 43 1004.4 - 0.6 - - - - - - -
28/11:30am 11.9 W 26 36 1003.5 - 0.6 - - - - - - -
28/11:12am 12.0 W 23 35 1003.3 - 0.6 - - - - - - -
28/11:00am 11.7 W 22 30 1003.4 - 0.6 - - - - - - -
28/10:30am 9.6 WSW 25 40 1003.6 - 0.6 - - - - - - -
28/10:00am 12.1 WSW 29 41 1002.9 - 0.2 - - - - - - -
28/09:51am 11.8 WSW 23 37 1002.6 - 0.2 - - - - - - -
28/09:30am 10.6 W 21 29 1002.5 - 0.2 - - - - - - -
28/09:22am 9.3 W 23 43 1002.4 - 0.2 - - - - - - -
28/09:17am 9.0 W 26 49 1002.6 - 0.0 - - - - - - -
28/09:13am 9.0 WSW 38 49 1002.6 - 0.0 - - - - - - -
28/09:11am 9.3 WSW 41 49 1002.6 - 0.0 - - - - - - -
28/09:00am 12.0 WSW 25 37 1001.9 - 4.6 - - - - - - -
28/08:30am 10.8 WSW 23 33 1001.5 - 4.6 - - - - - - -
28/08:03am 10.2 W 22 33 1001.3 - 4.6 - - - - - - -
28/08:00am 10.2 W 22 31 1001.2 - 4.6 - - - - - - -
28/07:30am 10.1 WSW 19 30 1000.9 - 4.2 - - - - - - -
28/07:13am 10.4 WSW 22 32 1000.5 - 3.8 - - - - - - -
28/07:00am 10.7 W 23 29 1000.3 - 3.8 - - - - - - -
28/06:36am 10.5 W 21 32 999.6 - 3.8 - - - - - - -
28/06:30am 10.4 W 21 27 999.7 - 3.8 - - - - - - -

Other Formats:

Comma delimited format used in spreadsheet applications
http://www.bom.gov.au/fwo/IDT60701/IDT60701.94953.axf

JavaScript Object Notation format (JSON) in row-major order
http://www.bom.gov.au/fwo/IDT60701/IDT60701.94953.json